createdAt,value
2022-08-17T00:00:43.245Z,16.67
2022-08-17T00:05:40.667Z,14.13
2022-08-17T00:10:45.987Z,13.90
2022-08-17T00:15:53.061Z,12.37
2022-08-17T00:20:55.958Z,14.83
2022-08-17T00:26:00.733Z,13.30
2022-08-17T00:31:03.915Z,17.47
2022-08-17T00:36:14.956Z,17.33
2022-08-17T00:41:21.389Z,14.30
2022-08-17T00:46:31.281Z,17.23
2022-08-17T00:51:47.649Z,15.70
2022-08-17T00:57:13.189Z,15.00
2022-08-17T01:02:16.544Z,14.53
2022-08-17T01:07:25.205Z,15.00
2022-08-17T01:12:31.484Z,14.90
2022-08-17T01:17:34.219Z,14.70
2022-08-17T01:22:38.878Z,18.53
2022-08-17T01:27:45.912Z,17.60
2022-08-17T01:32:53.016Z,15.30
2022-08-17T01:37:57.484Z,17.37
2022-08-17T01:43:07.412Z,16.70
2022-08-17T01:48:10.311Z,17.73
2022-08-17T01:53:20.504Z,16.00
2022-08-17T01:58:25.505Z,16.27
2022-08-17T02:03:33.527Z,16.23
2022-08-17T02:08:38.750Z,15.67
2022-08-17T02:13:42.552Z,15.03
2022-08-17T02:18:49.356Z,17.57
2022-08-17T02:23:51.630Z,15.50
2022-08-17T02:29:01.441Z,16.17
2022-08-17T02:34:08.475Z,18.00
2022-08-17T02:39:11.787Z,15.73
2022-08-17T02:44:39.023Z,17.20
2022-08-17T02:49:38.905Z,22.87
2022-08-17T02:54:43.640Z,19.97
2022-08-17T02:59:49.237Z,19.47
2022-08-17T03:04:56.240Z,21.07
2022-08-17T03:10:00.830Z,17.53
2022-08-17T03:15:08.491Z,21.07
2022-08-17T03:20:11.738Z,19.27
2022-08-17T03:25:22.668Z,19.23
2022-08-17T03:30:28.086Z,21.93
2022-08-17T03:35:31.938Z,23.30
2022-08-17T03:40:58.057Z,26.90
2022-08-17T03:46:28.042Z,23.63
2022-08-17T03:51:55.704Z,29.77
2022-08-17T03:57:05.881Z,31.63
2022-08-17T04:02:11.151Z,30.53
2022-08-17T04:07:13.627Z,31.77
2022-08-17T04:12:19.938Z,37.37
2022-08-17T04:17:30.536Z,33.83
2022-08-17T04:22:34.352Z,29.20
2022-08-17T04:27:38.953Z,25.23
2022-08-17T04:33:00.829Z,23.57
2022-08-17T04:38:13.169Z,22.83
2022-08-17T04:43:21.380Z,18.77
2022-08-17T04:48:29.791Z,21.40
2022-08-17T04:53:42.651Z,20.63
2022-08-17T04:58:51.789Z,14.85
2022-08-17T05:04:00.734Z,16.85
2022-08-17T05:09:23.300Z,16.85
2022-08-17T05:14:33.724Z,15.38
2022-08-17T05:19:36.341Z,17.42
2022-08-17T05:24:53.510Z,15.13
2022-08-17T05:30:02.755Z,16.33
2022-08-17T05:35:08.458Z,17.77
2022-08-17T05:40:10.963Z,16.00
2022-08-17T05:45:54.397Z,16.17
2022-08-17T05:51:01.410Z,17.27
2022-08-17T05:56:09.910Z,19.97
2022-08-17T06:01:42.344Z,16.45
2022-08-17T06:06:53.900Z,16.83
2022-08-17T06:12:12.887Z,16.67
2022-08-17T06:17:27.674Z,16.35
2022-08-17T06:22:36.076Z,15.50
2022-08-17T06:27:42.972Z,12.73
2022-08-17T06:32:49.217Z,13.00
2022-08-17T06:37:51.703Z,11.75
2022-08-17T06:43:05.812Z,11.97
2022-08-17T06:48:09.277Z,11.83
2022-08-17T06:53:45.656Z,11.57
2022-08-17T06:58:50.624Z,11.82
2022-08-17T07:04:11.885Z,10.67
2022-08-17T07:09:26.279Z,11.43
2022-08-17T07:14:39.793Z,10.70
2022-08-17T07:19:45.732Z,11.60
2022-08-17T07:24:52.862Z,12.90
2022-08-17T07:30:09.511Z,11.60
2022-08-17T07:35:23.512Z,9.68
2022-08-17T07:40:45.803Z,10.70
2022-08-17T07:46:15.045Z,9.60
2022-08-17T07:51:20.598Z,9.15
2022-08-17T07:56:49.448Z,10.30
2022-08-17T08:01:56.779Z,9.55
2022-08-17T08:07:04.362Z,8.90
2022-08-17T08:12:22.118Z,9.63
2022-08-17T08:17:32.089Z,12.27
2022-08-17T08:22:57.312Z,10.33
2022-08-17T08:28:17.112Z,13.50
2022-08-17T08:33:21.866Z,12.30
2022-08-17T08:38:30.916Z,11.15
2022-08-17T08:43:38.025Z,9.77
2022-08-17T08:49:06.572Z,10.52
2022-08-17T08:54:15.762Z,9.37
2022-08-17T08:59:21.207Z,8.93
2022-08-17T09:05:12.428Z,9.10
2022-08-17T09:10:24.660Z,9.57
2022-08-17T09:15:38.222Z,9.73
2022-08-17T09:20:53.218Z,8.50
2022-08-17T09:26:03.027Z,9.27
2022-08-17T09:31:16.002Z,9.25
2022-08-17T09:36:25.715Z,8.83
2022-08-17T09:41:48.656Z,8.40
2022-08-17T09:47:05.746Z,8.63
2022-08-17T09:52:08.044Z,8.73
2022-08-17T09:57:29.087Z,9.07
2022-08-17T10:02:32.743Z,9.30
2022-08-17T10:07:56.157Z,10.23
2022-08-17T10:13:03.954Z,9.48
2022-08-17T10:18:08.219Z,9.90
2022-08-17T10:23:32.377Z,9.93
2022-08-17T10:28:52.783Z,10.30
2022-08-17T10:33:59.468Z,10.17
2022-08-17T10:39:14.182Z,9.52
2022-08-17T10:44:41.300Z,9.68
2022-08-17T10:49:54.276Z,10.00
2022-08-17T10:55:08.121Z,9.45
2022-08-17T11:00:14.787Z,9.20
2022-08-17T11:05:28.913Z,9.48
2022-08-17T11:10:57.074Z,8.75
2022-08-17T11:16:24.918Z,10.23
2022-08-17T11:21:46.385Z,8.73
2022-08-17T11:27:12.104Z,9.30
2022-08-17T11:32:47.396Z,10.48
2022-08-17T11:38:15.919Z,9.05
2022-08-17T11:43:40.903Z,9.90
2022-08-17T11:49:17.274Z,8.77
2022-08-17T11:54:33.391Z,10.52
2022-08-17T11:59:36.800Z,9.45
2022-08-17T12:04:59.130Z,9.65
2022-08-17T12:10:09.091Z,10.85
2022-08-17T12:15:24.662Z,9.45
2022-08-17T12:20:27.959Z,9.63
2022-08-17T12:25:42.219Z,9.50
2022-08-17T12:30:51.923Z,10.68
2022-08-17T12:36:07.823Z,10.25
2022-08-17T12:41:28.580Z,11.00
2022-08-17T12:46:36.631Z,12.68
2022-08-17T12:51:48.316Z,10.40
2022-08-17T12:56:53.885Z,10.45
2022-08-17T13:01:56.612Z,8.63
2022-08-17T13:07:00.451Z,10.85
2022-08-17T13:12:06.466Z,10.13
2022-08-17T13:17:13.466Z,10.27
2022-08-17T13:22:22.469Z,8.52
2022-08-17T13:27:26.204Z,9.63
2022-08-17T13:32:54.872Z,8.25
2022-08-17T13:37:59.378Z,8.85
2022-08-17T13:43:05.833Z,9.05
2022-08-17T13:48:11.971Z,8.63
2022-08-17T13:53:25.077Z,7.88
2022-08-17T13:58:35.575Z,8.80
2022-08-17T14:03:42.898Z,9.20
2022-08-17T14:08:47.649Z,8.63
2022-08-17T14:13:52.557Z,8.38
2022-08-17T14:19:00.485Z,10.20
2022-08-17T14:24:02.977Z,10.52
2022-08-17T14:29:10.981Z,10.18
2022-08-17T14:34:22.023Z,9.85
2022-08-17T14:39:24.387Z,9.57
2022-08-17T14:44:29.909Z,8.98
2022-08-17T14:49:34.575Z,10.10
2022-08-17T14:54:38.046Z,9.18
2022-08-17T14:59:45.496Z,10.05
2022-08-17T15:04:51.741Z,9.95
2022-08-17T15:10:00.685Z,8.70
2022-08-17T15:15:07.121Z,12.55
2022-08-17T15:20:15.134Z,8.70
2022-08-17T15:25:22.214Z,8.73
2022-08-17T15:30:29.556Z,9.93
2022-08-17T15:35:32.890Z,9.65
2022-08-17T15:40:38.363Z,9.48
2022-08-17T15:45:43.283Z,9.82
2022-08-17T15:50:50.093Z,9.60
2022-08-17T15:55:53.009Z,9.25
2022-08-17T16:01:14.246Z,10.73
2022-08-17T16:06:24.851Z,11.13
2022-08-17T16:11:27.189Z,13.65
2022-08-17T16:16:34.346Z,12.20
2022-08-17T16:21:42.423Z,16.25
2022-08-17T16:26:53.527Z,16.20
2022-08-17T16:31:56.792Z,14.68
2022-08-17T16:37:02.253Z,15.02
2022-08-17T16:42:24.639Z,15.25
2022-08-17T16:47:27.177Z,15.90
2022-08-17T16:52:35.855Z,16.88
2022-08-17T16:57:47.420Z,18.30
2022-08-17T17:02:54.783Z,21.17
2022-08-17T17:08:00.970Z,17.98
2022-08-17T17:13:04.980Z,18.55
2022-08-17T17:18:13.148Z,19.80
2022-08-17T17:23:25.184Z,19.35
2022-08-17T17:28:27.685Z,19.38
2022-08-17T17:33:33.166Z,18.90
2022-08-17T17:38:51.807Z,20.00
2022-08-17T17:44:07.598Z,21.58
2022-08-17T17:49:14.462Z,19.40
2022-08-17T17:54:24.562Z,19.23
2022-08-17T17:59:43.747Z,18.00
2022-08-17T18:04:55.501Z,20.15
2022-08-17T18:10:29.318Z,21.92
2022-08-17T18:15:51.333Z,20.50
2022-08-17T18:20:59.559Z,21.83
2022-08-17T18:26:02.769Z,23.05
2022-08-17T18:31:14.586Z,22.92
2022-08-17T18:36:31.592Z,23.05
2022-08-17T18:41:39.741Z,24.67
2022-08-17T18:46:49.106Z,24.45
2022-08-17T18:52:07.984Z,27.50
2022-08-17T18:57:12.560Z,25.77
2022-08-17T19:02:32.575Z,25.80
2022-08-17T19:07:45.733Z,26.20
2022-08-17T19:13:11.311Z,25.77
2022-08-17T19:18:29.910Z,27.27
2022-08-17T19:23:59.407Z,25.57
2022-08-17T19:29:10.808Z,27.63
2022-08-17T19:34:17.144Z,27.57
2022-08-17T19:39:38.008Z,25.23
2022-08-17T19:44:47.173Z,26.33
2022-08-17T19:49:58.044Z,25.53
2022-08-17T19:55:19.841Z,23.93
2022-08-17T20:00:23.254Z,26.50
2022-08-17T20:05:31.056Z,24.93
2022-08-17T20:10:47.382Z,26.80
2022-08-17T20:16:02.304Z,26.80
2022-08-17T20:21:19.865Z,27.27
2022-08-17T20:26:27.553Z,28.43
2022-08-17T20:31:49.141Z,26.80
2022-08-17T20:37:00.090Z,29.40
2022-08-17T20:42:06.842Z,28.53
2022-08-17T20:47:17.215Z,29.07
2022-08-17T20:53:02.920Z,31.20
2022-08-17T20:58:24.079Z,31.87
2022-08-17T21:03:50.097Z,29.90
2022-08-17T21:08:57.828Z,33.87
2022-08-17T21:14:10.317Z,31.13
2022-08-17T21:19:22.160Z,32.77
2022-08-17T21:24:45.801Z,31.50
2022-08-17T21:30:14.258Z,30.73
2022-08-17T21:35:24.077Z,29.70
2022-08-17T21:40:28.371Z,30.50
2022-08-17T21:45:32.314Z,28.30
2022-08-17T21:50:35.602Z,30.53
2022-08-17T21:55:41.517Z,28.57
2022-08-17T22:00:46.013Z,30.53
2022-08-17T22:05:53.253Z,32.20
2022-08-17T22:11:01.954Z,31.10
2022-08-17T22:16:28.565Z,29.93
2022-08-17T22:21:34.421Z,28.30
2022-08-17T22:26:55.713Z,28.43
2022-08-17T22:32:11.172Z,27.30
2022-08-17T22:37:20.397Z,27.83
2022-08-17T22:42:34.525Z,29.63
2022-08-17T22:47:43.111Z,25.97
2022-08-17T22:53:14.225Z,27.17
2022-08-17T22:58:39.273Z,30.13
2022-08-17T23:03:54.079Z,26.27
2022-08-17T23:08:57.839Z,25.40
2022-08-17T23:14:05.034Z,25.23
2022-08-17T23:19:09.931Z,23.77
2022-08-17T23:24:19.532Z,26.40
2022-08-17T23:29:24.655Z,25.07
2022-08-17T23:34:28.165Z,27.43
2022-08-17T23:39:33.020Z,26.23
2022-08-17T23:44:38.557Z,28.87
2022-08-17T23:49:41.543Z,27.17
2022-08-17T23:54:47.421Z,27.67
2022-08-17T23:59:52.426Z,29.77
